createdAt,value
2019-05-18T00:00:14.186Z,25.63
2019-05-18T00:02:44.827Z,27.37
2019-05-18T00:05:15.513Z,26.43
2019-05-18T00:07:46.118Z,25.17
2019-05-18T00:10:17.541Z,26.07
2019-05-18T00:12:48.122Z,25.03
2019-05-18T00:15:18.795Z,23.77
2019-05-18T00:17:49.487Z,24.93
2019-05-18T00:20:20.049Z,25.60
2019-05-18T00:22:50.818Z,25.10
2019-05-18T00:25:21.422Z,25.37
2019-05-18T00:27:52.015Z,25.00
2019-05-18T00:30:22.694Z,24.03
2019-05-18T00:32:53.248Z,23.87
2019-05-18T00:35:25.211Z,24.33
2019-05-18T00:37:55.801Z,23.30
2019-05-18T00:40:26.386Z,24.23
2019-05-18T00:42:56.965Z,23.27
2019-05-18T00:45:27.560Z,24.23
2019-05-18T00:47:58.218Z,24.17
2019-05-18T00:50:28.889Z,23.80
2019-05-18T00:52:59.466Z,23.97
2019-05-18T00:55:30.046Z,24.07
2019-05-18T00:58:00.731Z,24.80
2019-05-18T01:00:31.511Z,24.43
2019-05-18T01:03:02.315Z,23.17
2019-05-18T01:05:32.906Z,23.83
2019-05-18T01:08:03.487Z,23.43
2019-05-18T01:10:34.268Z,23.17
2019-05-18T01:13:04.969Z,21.57
2019-05-18T01:15:35.660Z,21.30
2019-05-18T01:18:07.117Z,22.63
2019-05-18T01:20:37.757Z,22.47
2019-05-18T01:23:08.617Z,21.93
2019-05-18T01:25:39.180Z,24.83
2019-05-18T01:28:10.021Z,21.73
2019-05-18T01:30:40.599Z,22.90
2019-05-18T01:33:11.185Z,23.60
2019-05-18T01:35:41.801Z,22.33
2019-05-18T01:38:12.413Z,21.70
2019-05-18T01:40:43.075Z,22.23
2019-05-18T01:43:14.463Z,21.67
2019-05-18T01:45:45.315Z,20.53
2019-05-18T01:48:15.889Z,23.30
2019-05-18T01:50:46.615Z,26.63
2019-05-18T01:53:17.194Z,23.97
2019-05-18T01:55:47.773Z,24.17
2019-05-18T01:58:18.367Z,22.90
2019-05-18T02:00:48.947Z,24.57
2019-05-18T02:03:19.542Z,23.30
2019-05-18T02:05:50.125Z,23.83
2019-05-18T02:08:20.715Z,23.17
2019-05-18T02:10:51.332Z,22.10
2019-05-18T02:13:21.941Z,21.80
2019-05-18T02:15:52.519Z,20.43
2019-05-18T02:18:29.159Z,20.93
2019-05-18T02:20:55.381Z,19.60
2019-05-18T02:23:25.973Z,21.23
2019-05-18T02:25:56.632Z,20.37
2019-05-18T02:28:27.215Z,22.60
2019-05-18T02:30:57.817Z,21.87
2019-05-18T02:33:28.503Z,22.60
2019-05-18T02:35:59.097Z,22.40
2019-05-18T02:38:29.667Z,22.47
2019-05-18T02:41:00.378Z,20.93
2019-05-18T02:43:30.957Z,24.87
2019-05-18T02:46:01.538Z,25.53
2019-05-18T02:48:47.555Z,24.17
2019-05-18T02:51:04.381Z,26.43
2019-05-18T02:53:34.973Z,28.37
2019-05-18T02:56:05.623Z,25.53
2019-05-18T02:58:36.203Z,26.63
2019-05-18T03:01:06.909Z,26.37
2019-05-18T03:03:37.568Z,25.37
2019-05-18T03:06:08.408Z,25.40
2019-05-18T03:08:39.180Z,24.10
2019-05-18T03:11:09.856Z,24.80
2019-05-18T03:13:40.579Z,25.03
2019-05-18T03:16:11.265Z,24.50
2019-05-18T03:18:42.181Z,24.17
2019-05-18T03:21:12.849Z,24.33
2019-05-18T03:23:43.511Z,23.70
2019-05-18T03:26:14.093Z,29.00
2019-05-18T03:28:44.979Z,24.43
2019-05-18T03:31:15.564Z,24.80
2019-05-18T03:33:46.117Z,23.40
2019-05-18T03:36:16.782Z,23.40
2019-05-18T03:38:47.577Z,24.93
2019-05-18T03:41:18.156Z,24.33
2019-05-18T03:43:48.742Z,27.37
2019-05-18T03:46:23.330Z,27.50
2019-05-18T03:48:51.775Z,24.63
2019-05-18T03:51:22.363Z,24.00
2019-05-18T03:53:53.041Z,22.33
2019-05-18T03:56:23.636Z,22.27
2019-05-18T03:58:54.248Z,22.93
2019-05-18T04:01:24.934Z,21.37
2019-05-18T04:03:55.640Z,22.23
2019-05-18T04:06:26.423Z,29.03
2019-05-18T04:08:57.241Z,26.50
2019-05-18T04:11:27.920Z,28.33
2019-05-18T04:13:58.618Z,26.83
2019-05-18T04:16:30.446Z,27.00
2019-05-18T04:19:01.082Z,27.70
2019-05-18T04:21:31.850Z,28.57
2019-05-18T04:24:03.765Z,27.67
2019-05-18T04:26:34.584Z,26.07
2019-05-18T04:29:05.930Z,25.90
2019-05-18T04:31:36.690Z,24.63
2019-05-18T04:34:07.396Z,25.20
2019-05-18T04:36:38.459Z,33.93
2019-05-18T04:39:09.100Z,24.50
2019-05-18T04:41:39.875Z,25.10
2019-05-18T04:44:10.617Z,25.13
2019-05-18T04:46:41.472Z,23.47
2019-05-18T04:49:12.153Z,23.60
2019-05-18T04:51:42.945Z,24.43
2019-05-18T04:54:13.686Z,24.23
2019-05-18T04:56:44.256Z,23.17
2019-05-18T04:59:15.304Z,22.63
2019-05-18T05:01:46.269Z,22.90
2019-05-18T05:04:16.962Z,23.07
2019-05-18T05:06:47.706Z,21.57
2019-05-18T05:09:18.425Z,21.90
2019-05-18T05:11:49.224Z,23.23
2019-05-18T05:14:20.086Z,22.13
2019-05-18T05:16:52.460Z,21.90
2019-05-18T05:19:23.292Z,21.43
2019-05-18T05:21:54.080Z,22.57
2019-05-18T05:24:25.965Z,23.37
2019-05-18T05:26:56.540Z,23.30
2019-05-18T05:29:27.121Z,21.53
2019-05-18T05:31:57.800Z,21.30
2019-05-18T05:34:28.473Z,21.53
2019-05-18T05:36:59.083Z,21.00
2019-05-18T05:39:29.671Z,19.03
2019-05-18T05:42:00.249Z,19.57
2019-05-18T05:44:31.918Z,22.07
2019-05-18T05:47:02.550Z,21.40
2019-05-18T05:49:33.122Z,21.10
2019-05-18T05:52:03.702Z,22.90
2019-05-18T05:54:35.304Z,21.90
2019-05-18T05:57:05.896Z,22.20
2019-05-18T05:59:36.515Z,21.37
2019-05-18T06:02:07.093Z,20.70
2019-05-18T06:04:37.682Z,18.35
2019-05-18T06:07:09.338Z,20.88
2019-05-18T06:09:39.900Z,20.90
2019-05-18T06:12:10.489Z,19.32
2019-05-18T06:14:42.068Z,19.67
2019-05-18T06:17:12.683Z,19.80
2019-05-18T06:19:43.256Z,18.37
2019-05-18T06:22:13.836Z,21.12
2019-05-18T06:24:44.429Z,18.98
2019-05-18T06:27:15.122Z,16.48
2019-05-18T06:29:45.894Z,20.57
2019-05-18T06:32:16.477Z,19.15
2019-05-18T06:34:47.081Z,18.12
2019-05-18T06:37:18.395Z,20.30
2019-05-18T06:39:50.309Z,20.02
2019-05-18T06:42:20.963Z,19.37
2019-05-18T06:44:51.670Z,20.02
2019-05-18T06:47:22.278Z,19.57
2019-05-18T06:49:52.908Z,19.05
2019-05-18T06:52:23.792Z,18.60
2019-05-18T06:54:55.916Z,19.98
2019-05-18T06:57:27.284Z,19.20
2019-05-18T06:59:58.567Z,19.27
2019-05-18T07:02:29.147Z,17.87
2019-05-18T07:04:59.715Z,20.45
2019-05-18T07:07:30.410Z,20.30
2019-05-18T07:10:01.034Z,21.17
2019-05-18T07:12:31.790Z,20.32
2019-05-18T07:15:02.449Z,20.52
2019-05-18T07:17:36.366Z,19.52
2019-05-18T07:20:07.300Z,18.52
2019-05-18T07:22:37.910Z,22.07
2019-05-18T07:25:09.652Z,18.90
2019-05-18T07:27:40.318Z,17.45
2019-05-18T07:30:11.603Z,17.57
2019-05-18T07:32:42.525Z,16.35
2019-05-18T07:35:13.655Z,15.48
2019-05-18T07:37:44.378Z,15.83
2019-05-18T07:40:15.034Z,15.32
2019-05-18T07:42:45.638Z,16.15
2019-05-18T07:45:17.255Z,15.55
2019-05-18T07:47:47.938Z,15.18
2019-05-18T07:50:18.669Z,15.75
2019-05-18T07:52:49.259Z,15.25
2019-05-18T07:55:19.874Z,15.63
2019-05-18T07:57:50.465Z,16.32
2019-05-18T08:00:21.185Z,15.28
2019-05-18T08:02:51.770Z,15.98
2019-05-18T08:05:22.364Z,14.65
2019-05-18T08:07:52.951Z,15.13
2019-05-18T08:10:37.877Z,18.25
2019-05-18T08:13:08.615Z,15.15
2019-05-18T08:15:39.531Z,14.00
2019-05-18T08:18:10.316Z,14.45
2019-05-18T08:20:40.880Z,13.45
2019-05-18T08:23:11.544Z,12.65
2019-05-18T08:25:42.143Z,12.82
2019-05-18T08:28:12.749Z,12.10
2019-05-18T08:30:43.358Z,14.23
2019-05-18T08:33:13.940Z,14.90
2019-05-18T08:35:44.543Z,14.05
2019-05-18T08:38:15.252Z,15.03
2019-05-18T08:40:45.856Z,16.45
2019-05-18T08:43:16.486Z,14.03
2019-05-18T08:45:47.257Z,15.18
2019-05-18T08:48:17.994Z,14.43
2019-05-18T08:50:48.615Z,14.15
2019-05-18T08:53:19.295Z,14.78
2019-05-18T08:55:50.100Z,13.88
2019-05-18T08:58:20.768Z,12.93
2019-05-18T09:00:51.416Z,13.45
2019-05-18T09:03:22.076Z,12.80
2019-05-18T09:05:52.668Z,13.58
2019-05-18T09:08:23.349Z,13.18
2019-05-18T09:10:54.049Z,13.68
2019-05-18T09:13:24.884Z,14.85
2019-05-18T09:15:55.593Z,13.25
2019-05-18T09:18:26.278Z,15.98
2019-05-18T09:20:56.870Z,15.43
2019-05-18T09:23:28.698Z,16.52
2019-05-18T09:25:59.378Z,15.45
2019-05-18T09:28:30.379Z,13.53
2019-05-18T09:31:00.943Z,14.53
2019-05-18T09:33:31.708Z,13.22
2019-05-18T09:36:03.180Z,13.53
2019-05-18T09:38:35.224Z,14.30
2019-05-18T09:41:05.803Z,14.10
2019-05-18T09:43:36.406Z,16.20
2019-05-18T09:46:06.986Z,16.17
2019-05-18T09:48:37.755Z,14.98
2019-05-18T09:51:08.348Z,16.35
2019-05-18T09:53:50.654Z,16.90
2019-05-18T09:56:11.323Z,17.42
2019-05-18T09:58:41.906Z,17.70
2019-05-18T10:01:12.540Z,15.95
2019-05-18T10:03:43.205Z,16.62
2019-05-18T10:06:13.840Z,16.55
2019-05-18T10:08:44.546Z,17.98
2019-05-18T10:11:15.173Z,16.50
2019-05-18T10:13:45.872Z,14.85
2019-05-18T10:16:17.437Z,14.70
2019-05-18T10:18:48.036Z,14.43
2019-05-18T10:21:18.622Z,14.65
2019-05-18T10:23:49.452Z,18.42
2019-05-18T10:26:20.193Z,16.80
2019-05-18T10:28:51.065Z,19.23
2019-05-18T10:31:21.649Z,17.25
2019-05-18T10:33:52.214Z,16.27
2019-05-18T10:36:22.811Z,15.85
2019-05-18T10:38:53.538Z,16.57
2019-05-18T10:41:24.137Z,15.93
2019-05-18T10:43:54.869Z,15.70
2019-05-18T10:46:25.448Z,16.62
2019-05-18T10:48:56.050Z,16.00
2019-05-18T10:51:26.693Z,15.65
2019-05-18T10:53:57.317Z,14.85
2019-05-18T10:56:31.118Z,13.88
2019-05-18T10:59:00.262Z,12.53
2019-05-18T11:01:30.926Z,11.48
2019-05-18T11:04:01.727Z,11.75
2019-05-18T11:06:32.464Z,10.88
2019-05-18T11:09:04.256Z,10.03
2019-05-18T11:11:35.325Z,11.38
2019-05-18T11:14:06.450Z,8.93
2019-05-18T11:16:38.301Z,11.15
2019-05-18T11:19:08.968Z,9.93
2019-05-18T11:21:39.544Z,7.65
2019-05-18T11:24:10.142Z,10.32
2019-05-18T11:26:40.728Z,10.03
2019-05-18T11:29:11.322Z,8.83
2019-05-18T11:31:41.880Z,9.03
2019-05-18T11:34:12.483Z,7.03
2019-05-18T11:36:43.059Z,5.80
2019-05-18T11:39:13.718Z,7.20
2019-05-18T11:41:44.314Z,6.58
2019-05-18T11:44:14.885Z,7.50
2019-05-18T11:46:45.467Z,6.70
2019-05-18T11:49:16.173Z,6.75
2019-05-18T11:51:46.856Z,5.28
2019-05-18T11:54:17.544Z,5.97
2019-05-18T11:56:48.130Z,6.00
2019-05-18T11:59:18.697Z,5.90
2019-05-18T12:01:49.314Z,7.10
2019-05-18T12:04:19.915Z,6.72
2019-05-18T12:06:50.492Z,5.37
2019-05-18T12:09:21.071Z,5.10
2019-05-18T12:11:51.672Z,5.65
2019-05-18T12:14:22.344Z,5.22
2019-05-18T12:16:52.963Z,5.85
2019-05-18T12:19:23.591Z,5.53
2019-05-18T12:21:54.224Z,5.75
2019-05-18T12:24:24.780Z,5.50
2019-05-18T12:26:55.719Z,5.30
2019-05-18T12:29:26.270Z,5.05
2019-05-18T12:31:56.961Z,5.53
2019-05-18T12:34:27.538Z,12.25
2019-05-18T12:36:58.101Z,7.62
2019-05-18T12:39:28.882Z,5.65
2019-05-18T12:41:59.453Z,5.92
2019-05-18T12:44:30.040Z,6.28
2019-05-18T12:47:00.608Z,5.67
2019-05-18T12:49:31.506Z,7.72
2019-05-18T12:52:02.500Z,20.02
2019-05-18T12:54:45.535Z,7.15
2019-05-18T12:57:05.651Z,5.62
2019-05-18T12:59:36.530Z,5.70
2019-05-18T13:02:07.502Z,5.15
2019-05-18T13:04:41.594Z,4.90
2019-05-18T13:07:11.171Z,5.50
2019-05-18T13:09:42.290Z,5.92
2019-05-18T13:12:13.607Z,4.55
2019-05-18T13:14:44.417Z,4.60
2019-05-18T13:17:15.209Z,4.85
2019-05-18T13:19:46.966Z,4.80
2019-05-18T13:22:18.179Z,7.10
2019-05-18T13:24:52.028Z,5.17
2019-05-18T13:27:21.096Z,5.10
2019-05-18T13:29:51.771Z,5.25
2019-05-18T13:32:22.399Z,6.40
2019-05-18T13:34:53.202Z,8.28
2019-05-18T13:37:23.997Z,7.30
2019-05-18T13:39:56.502Z,6.80
2019-05-18T13:42:27.772Z,6.70
2019-05-18T13:44:59.275Z,6.07
2019-05-18T13:47:30.463Z,6.77
2019-05-18T13:50:01.059Z,5.15
2019-05-18T13:52:32.352Z,4.78
2019-05-18T13:55:05.160Z,5.20
2019-05-18T13:57:37.026Z,4.70
2019-05-18T14:00:09.904Z,4.60
2019-05-18T14:02:40.502Z,4.30
2019-05-18T14:05:13.055Z,3.80
2019-05-18T14:07:43.684Z,4.30
2019-05-18T14:10:15.407Z,4.30
2019-05-18T14:12:46.188Z,4.50
2019-05-18T14:15:17.412Z,3.95
2019-05-18T14:17:48.347Z,4.60
2019-05-18T14:20:19.109Z,4.78
2019-05-18T14:22:49.692Z,6.70
2019-05-18T14:25:20.507Z,5.17
2019-05-18T14:27:51.081Z,5.55
2019-05-18T14:30:22.320Z,4.63
2019-05-18T14:32:52.994Z,5.22
2019-05-18T14:35:23.577Z,5.03
2019-05-18T14:37:54.410Z,5.10
2019-05-18T14:40:25.090Z,5.30
2019-05-18T14:42:55.662Z,4.80
2019-05-18T14:45:26.263Z,4.83
2019-05-18T14:47:56.835Z,4.13
2019-05-18T14:50:27.409Z,4.40
2019-05-18T14:52:58.002Z,4.53
2019-05-18T14:55:33.799Z,3.63
2019-05-18T14:58:00.933Z,5.10
2019-05-18T15:00:31.509Z,4.13
2019-05-18T15:03:02.080Z,4.80
2019-05-18T15:05:32.656Z,4.70
2019-05-18T15:08:03.215Z,4.30
2019-05-18T15:10:38.197Z,4.80
2019-05-18T15:13:08.855Z,4.60
2019-05-18T15:15:39.508Z,3.70
2019-05-18T15:18:10.072Z,4.60
2019-05-18T15:20:40.814Z,4.57
2019-05-18T15:23:11.386Z,4.27
2019-05-18T15:25:50.071Z,4.10
2019-05-18T15:28:14.356Z,4.83
2019-05-18T15:30:44.954Z,4.50
2019-05-18T15:33:15.712Z,4.73
2019-05-18T15:35:46.307Z,4.90
2019-05-18T15:38:16.993Z,4.90
2019-05-18T15:40:47.577Z,4.67
2019-05-18T15:43:18.317Z,4.87
2019-05-18T15:45:48.923Z,4.67
2019-05-18T15:48:19.647Z,4.50
2019-05-18T15:50:50.983Z,4.70
2019-05-18T15:53:21.568Z,4.23
2019-05-18T15:56:04.879Z,4.43
2019-05-18T15:58:24.415Z,4.47
2019-05-18T16:00:55.161Z,4.47
2019-05-18T16:03:25.742Z,4.30
2019-05-18T16:05:56.902Z,4.53
2019-05-18T16:08:27.480Z,4.63
2019-05-18T16:10:58.062Z,4.20
2019-05-18T16:13:28.794Z,4.47
2019-05-18T16:15:59.451Z,4.53
2019-05-18T16:18:30.290Z,4.07
2019-05-18T16:21:00.843Z,3.87
2019-05-18T16:23:32.538Z,4.20
2019-05-18T16:26:03.134Z,4.93
2019-05-18T16:28:33.726Z,5.43
2019-05-18T16:31:04.479Z,4.40
2019-05-18T16:33:35.409Z,4.77
2019-05-18T16:36:06.144Z,5.17
2019-05-18T16:38:37.706Z,5.00
2019-05-18T16:41:08.386Z,5.03
2019-05-18T16:43:38.985Z,4.23
2019-05-18T16:46:09.644Z,4.43
2019-05-18T16:48:40.356Z,4.37
2019-05-18T16:51:11.441Z,4.33
2019-05-18T16:53:42.003Z,4.30
2019-05-18T16:56:12.731Z,4.20
2019-05-18T16:58:43.289Z,4.27
2019-05-18T17:01:13.870Z,4.67
2019-05-18T17:03:44.447Z,4.47
2019-05-18T17:06:16.490Z,4.13
2019-05-18T17:08:47.376Z,4.27
2019-05-18T17:11:17.941Z,4.30
2019-05-18T17:13:48.517Z,4.77
2019-05-18T17:16:19.125Z,4.40
2019-05-18T17:18:49.704Z,5.20
2019-05-18T17:21:20.255Z,17.23
2019-05-18T17:23:53.604Z,37.77
2019-05-18T17:26:23.787Z,46.13
2019-05-18T17:28:54.550Z,40.60
2019-05-18T17:31:25.188Z,30.20
2019-05-18T17:33:55.889Z,23.27
2019-05-18T17:36:26.500Z,20.57
2019-05-18T17:38:57.141Z,34.97
2019-05-18T17:41:27.734Z,25.87
2019-05-18T17:43:58.905Z,22.83
2019-05-18T17:46:29.648Z,22.00
2019-05-18T17:49:00.338Z,12.00
2019-05-18T17:51:31.055Z,22.87
2019-05-18T17:54:02.375Z,18.07
2019-05-18T17:56:33.302Z,12.93
2019-05-18T17:59:04.457Z,14.23
2019-05-18T18:01:35.384Z,10.90
2019-05-18T18:04:06.282Z,8.80
2019-05-18T18:06:37.189Z,7.07
2019-05-18T18:09:08.933Z,6.50
2019-05-18T18:11:39.880Z,6.80
2019-05-18T18:14:10.850Z,6.50
2019-05-18T18:16:41.764Z,5.23
2019-05-18T18:19:15.818Z,5.37
2019-05-18T18:21:46.858Z,5.13
2019-05-18T18:24:17.817Z,5.17
2019-05-18T18:26:48.631Z,4.87
2019-05-18T18:29:20.351Z,5.00
2019-05-18T18:31:51.001Z,4.97
2019-05-18T18:34:21.764Z,4.37
2019-05-18T18:36:52.468Z,4.80
2019-05-18T18:39:23.109Z,5.40
2019-05-18T18:41:53.703Z,5.80
2019-05-18T18:44:25.892Z,5.93
2019-05-18T18:46:56.517Z,6.03
2019-05-18T18:49:27.205Z,6.80
2019-05-18T18:51:57.820Z,5.90
2019-05-18T18:54:28.469Z,7.20
2019-05-18T18:56:59.047Z,7.40
2019-05-18T18:59:29.626Z,6.97
2019-05-18T19:02:00.757Z,6.40
2019-05-18T19:04:31.831Z,7.73
2019-05-18T19:07:02.633Z,8.40
2019-05-18T19:09:33.199Z,10.00
2019-05-18T19:12:03.944Z,15.43
2019-05-18T19:14:34.783Z,10.97
2019-05-18T19:17:07.250Z,26.63
2019-05-18T19:19:40.120Z,131.17
2019-05-18T19:22:11.466Z,98.80
2019-05-18T19:24:42.032Z,55.97
2019-05-18T19:27:12.630Z,52.00
2019-05-18T19:29:43.383Z,126.50
2019-05-18T19:32:14.010Z,29.60
2019-05-18T19:34:44.714Z,26.43
2019-05-18T19:37:15.584Z,19.87
2019-05-18T19:39:47.677Z,25.13
2019-05-18T19:42:18.477Z,40.13
2019-05-18T19:44:49.877Z,26.13
2019-05-18T19:47:21.178Z,28.93
2019-05-18T19:49:52.528Z,32.10
2019-05-18T19:52:23.385Z,55.43
2019-05-18T19:54:54.017Z,82.03
2019-05-18T19:57:24.736Z,85.23
2019-05-18T19:59:56.862Z,56.37
2019-05-18T20:02:27.466Z,49.10
2019-05-18T20:05:07.486Z,58.80
2019-05-18T20:07:31.767Z,51.17
2019-05-18T20:10:05.608Z,52.87
2019-05-18T20:12:36.280Z,47.13
2019-05-18T20:15:09.481Z,40.97
2019-05-18T20:17:40.991Z,32.90
2019-05-18T20:20:14.631Z,25.33
2019-05-18T20:22:45.306Z,20.70
2019-05-18T20:25:16.145Z,21.13
2019-05-18T20:27:46.813Z,19.57
2019-05-18T20:30:18.218Z,21.27
2019-05-18T20:32:49.047Z,19.87
2019-05-18T20:35:19.765Z,18.70
2019-05-18T20:37:50.376Z,19.27
2019-05-18T20:40:21.057Z,18.63
2019-05-18T20:42:53.357Z,17.83
2019-05-18T20:45:24.177Z,18.73
2019-05-18T20:47:54.759Z,17.50
2019-05-18T20:50:25.368Z,17.73
2019-05-18T20:52:55.965Z,17.07
2019-05-18T20:55:26.551Z,17.70
2019-05-18T20:57:57.211Z,16.20
2019-05-18T21:00:28.691Z,16.97
2019-05-18T21:02:59.448Z,16.67
2019-05-18T21:05:30.753Z,16.00
2019-05-18T21:08:01.869Z,15.33
2019-05-18T21:10:36.274Z,15.83
2019-05-18T21:13:06.944Z,14.53
2019-05-18T21:15:37.536Z,14.40
2019-05-18T21:18:08.241Z,15.13
2019-05-18T21:20:38.867Z,14.90
2019-05-18T21:23:09.487Z,14.13
2019-05-18T21:25:40.093Z,15.40
2019-05-18T21:28:10.703Z,14.83
2019-05-18T21:30:41.299Z,15.80
2019-05-18T21:33:11.890Z,16.70
2019-05-18T21:35:42.465Z,13.77
2019-05-18T21:38:13.040Z,13.73
2019-05-18T21:40:43.628Z,16.90
2019-05-18T21:43:14.260Z,15.97
2019-05-18T21:45:44.839Z,16.97
2019-05-18T21:48:15.452Z,19.20
2019-05-18T21:50:46.016Z,18.13
2019-05-18T21:53:18.028Z,18.47
2019-05-18T21:55:48.627Z,18.53
2019-05-18T21:58:19.226Z,17.10
2019-05-18T22:00:50.608Z,17.10
2019-05-18T22:03:21.205Z,16.50
2019-05-18T22:05:53.215Z,16.60
2019-05-18T22:08:23.817Z,17.67
2019-05-18T22:10:54.428Z,16.83
2019-05-18T22:13:25.071Z,16.43
2019-05-18T22:15:55.602Z,13.97
2019-05-18T22:18:26.184Z,13.90
2019-05-18T22:20:56.778Z,12.33
2019-05-18T22:23:27.361Z,11.60
2019-05-18T22:25:58.045Z,10.80
2019-05-18T22:28:28.652Z,11.13
2019-05-18T22:30:59.247Z,10.80
2019-05-18T22:33:29.862Z,11.13
2019-05-18T22:36:00.433Z,11.00
2019-05-18T22:38:31.024Z,10.23
2019-05-18T22:41:01.621Z,11.67
2019-05-18T22:43:32.197Z,11.03
2019-05-18T22:46:02.925Z,12.13
2019-05-18T22:48:41.277Z,14.00
2019-05-18T22:51:06.657Z,11.33
2019-05-18T22:53:37.321Z,14.87
2019-05-18T22:56:07.931Z,12.83
2019-05-18T22:58:38.514Z,10.50
2019-05-18T23:01:09.332Z,11.40
2019-05-18T23:03:40.115Z,10.57
2019-05-18T23:06:10.875Z,12.13
2019-05-18T23:08:41.691Z,12.17
2019-05-18T23:11:12.524Z,12.30
2019-05-18T23:13:43.286Z,12.90
2019-05-18T23:16:13.963Z,12.40
2019-05-18T23:18:56.349Z,12.03
2019-05-18T23:21:20.168Z,11.97
2019-05-18T23:23:50.870Z,11.97
2019-05-18T23:26:21.667Z,12.50
2019-05-18T23:28:52.408Z,11.70
2019-05-18T23:31:22.989Z,11.83
2019-05-18T23:33:53.791Z,12.80
2019-05-18T23:36:24.487Z,12.73
2019-05-18T23:38:55.184Z,12.37
2019-05-18T23:41:25.758Z,12.87
2019-05-18T23:43:56.470Z,12.20
2019-05-18T23:46:27.056Z,11.50
2019-05-18T23:49:10.018Z,12.10
2019-05-18T23:51:30.088Z,11.50
2019-05-18T23:54:00.656Z,11.87
2019-05-18T23:56:31.327Z,11.00
2019-05-18T23:59:01.971Z,11.10
